Time;durP1;ratioP1;P1;durP2;ratioP2;P2;SDS_P1;SDS_P2;PMS_P1;PMS_P2;Temp;Humidity;BMP_temperature;BMP_pressure;BME280_temperature;BME280_humidity;BME280_pressure;Samples;Min_cycle;Max_cycle;Signal;HPM_P1;HPM_P2
2023/07/17 00:00:22;;;;;;;4.63;2.95;;;;;;;20.51;78.56;96876.50;5035090;28;20223;-62
2023/07/17 00:02:48;;;;;;;4.85;2.97;;;;;;;20.52;79.17;96880.03;5034663;28;20215;-63
2023/07/17 00:05:17;;;;;;;3.78;2.78;;;;;;;20.54;77.94;96886.88;5034711;28;20207;-63
2023/07/17 00:07:44;;;;;;;3.38;2.10;;;;;;;20.54;77.46;96892.25;5034261;28;20657;-62
2023/07/17 00:10:11;;;;;;;2.33;2.00;;;;;;;20.59;81.14;96881.72;5034662;28;20239;-62
2023/07/17 00:12:38;;;;;;;2.63;2.38;;;;;;;20.61;81.13;96878.84;5039919;28;20223;-62
2023/07/17 00:15:06;;;;;;;2.88;2.55;;;;;;;20.60;84.33;96874.47;5042977;28;20239;-62
2023/07/17 00:17:32;;;;;;;2.53;2.33;;;;;;;20.61;84.95;96860.88;5040240;28;20199;-63
2023/07/17 00:19:59;;;;;;;4.63;2.47;;;;;;;20.60;81.22;96850.31;5048685;28;20221;-64
2023/07/17 00:22:26;;;;;;;5.10;2.53;;;;;;;20.61;83.81;96866.22;5037236;28;20212;-63
2023/07/17 00:24:53;;;;;;;3.38;2.33;;;;;;;20.63;85.81;96874.09;5038005;28;20204;-62
2023/07/17 00:27:20;;;;;;;2.60;2.40;;;;;;;20.60;88.51;96886.06;5051463;28;20211;-62
2023/07/17 00:29:47;;;;;;;2.60;2.40;;;;;;;20.60;88.48;96888.75;5035889;28;20647;-63
2023/07/17 00:32:14;;;;;;;6.47;2.42;;;;;;;20.58;86.93;96888.09;5035233;28;20227;-63
2023/07/17 00:34:41;;;;;;;5.00;2.78;;;;;;;20.52;85.73;96891.59;5035303;28;20211;-62
2023/07/17 00:37:08;;;;;;;3.45;2.13;;;;;;;20.51;84.19;96884.56;5037517;28;20215;-62
2023/07/17 00:39:36;;;;;;;5.35;2.65;;;;;;;20.50;85.96;96890.97;5040935;28;20274;-62
2023/07/17 00:42:03;;;;;;;3.78;2.50;;;;;;;20.51;87.42;96894.50;5034857;28;20203;-62
2023/07/17 00:44:29;;;;;;;2.92;2.00;;;;;;;20.50;90.33;96896.34;5034365;28;20546;-65
2023/07/17 00:46:56;;;;;;;4.38;2.47;;;;;;;20.51;91.46;96895.31;5038982;28;20215;-62
2023/07/17 00:49:24;;;;;;;3.25;2.58;;;;;;;20.51;93.08;96899.88;5039040;28;20211;-62
2023/07/17 00:51:51;;;;;;;3.70;2.97;;;;;;;20.45;92.12;96903.34;5038500;28;20258;-61
2023/07/17 00:54:19;;;;;;;3.50;2.47;;;;;;;20.41;93.62;96904.75;5038684;28;20269;-62
2023/07/17 00:56:47;;;;;;;4.30;2.13;;;;;;;20.41;94.96;96905.59;5038984;28;20203;-64
2023/07/17 00:59:14;;;;;;;4.70;2.42;;;;;;;20.38;95.39;96900.63;5039320;28;20218;-62
2023/07/17 01:01:40;;;;;;;3.80;2.60;;;;;;;20.40;94.72;96893.22;5051674;28;20564;-62
2023/07/17 01:04:07;;;;;;;3.83;2.50;;;;;;;20.39;94.09;96891.53;5040769;28;20235;-62
2023/07/17 01:06:38;;;;;;;6.05;2.55;;;;;;;20.37;97.26;96898.16;5039482;28;20227;-62
2023/07/17 01:09:04;;;;;;;3.53;2.50;;;;;;;20.30;100.00;96906.97;5039168;28;20231;-63
2023/07/17 01:11:31;;;;;;;5.50;2.13;;;;;;;20.27;100.00;96912.75;5039808;28;20207;-62
2023/07/17 01:13:59;;;;;;;4.53;2.60;;;;;;;20.11;100.00;96926.44;5050954;28;20203;-62
2023/07/17 01:16:25;;;;;;;3.72;2.70;;;;;;;20.10;100.00;96940.88;5037449;28;20246;-61
2023/07/17 01:18:53;;;;;;;6.25;3.10;;;;;;;20.05;100.00;96961.31;5038161;28;20769;-62
2023/07/17 01:21:22;;;;;;;7.35;3.42;;;;;;;19.94;100.00;96959.16;5044945;28;20207;-62
2023/07/17 01:23:50;;;;;;;5.28;3.47;;;;;;;19.70;100.00;96949.63;5037566;28;20222;-64
2023/07/17 01:26:18;;;;;;;5.50;3.08;;;;;;;19.49;100.00;96939.72;5046354;28;20214;-62
2023/07/17 01:28:46;;;;;;;5.22;3.10;;;;;;;19.21;100.00;96928.88;5053637;28;20208;-66
2023/07/17 01:31:13;;;;;;;6.45;3.05;;;;;;;19.08;100.00;96925.25;5037574;28;20211;-66
2023/07/17 01:33:39;;;;;;;4.95;2.90;;;;;;;19.03;100.00;96899.00;5037327;28;20231;-61
2023/07/17 01:36:07;;;;;;;7.63;3.42;;;;;;;18.83;100.00;96877.34;5037484;28;20204;-63
2023/07/17 01:38:33;;;;;;;6.15;3.50;;;;;;;18.88;100.00;96882.13;5046529;28;20277;-62
2023/07/17 01:41:01;;;;;;;4.60;3.17;;;;;;;18.77;100.00;96899.53;5049271;28;20203;-65
2023/07/17 01:43:27;;;;;;;5.70;3.17;;;;;;;18.71;100.00;96910.97;5037843;28;20223;-62
2023/07/17 01:45:54;;;;;;;3.30;3.00;;;;;;;18.60;100.00;96918.69;5036984;28;20211;-63
2023/07/17 01:48:20;;;;;;;4.53;3.30;;;;;;;18.62;100.00;96930.03;5036982;28;20215;-62
2023/07/17 01:50:47;;;;;;;5.88;3.65;;;;;;;18.51;100.00;96931.31;5037106;28;20215;-63
2023/07/17 01:53:13;;;;;;;4.97;3.13;;;;;;;18.49;100.00;96938.69;5036589;28;20243;-63
2023/07/17 01:55:40;;;;;;;5.18;3.00;;;;;;;18.38;100.00;96934.63;5037073;28;20235;-62
2023/07/17 01:58:07;;;;;;;3.88;3.15;;;;;;;18.37;100.00;96932.13;5035426;28;20579;-62
2023/07/17 02:00:35;;;;;;;5.28;2.85;;;;;;;18.27;100.00;96924.38;5037004;28;20219;-63
2023/07/17 02:03:01;;;;;;;4.00;3.20;;;;;;;18.30;100.00;96933.88;5036456;28;20212;-63
2023/07/17 02:05:28;;;;;;;5.15;3.22;;;;;;;18.24;100.00;96923.91;5036941;28;20561;-62
2023/07/17 02:07:54;;;;;;;5.60;3.40;;;;;;;18.25;100.00;96938.94;5041936;28;20639;-62
2023/07/17 02:10:21;;;;;;;8.52;3.50;;;;;;;18.18;100.00;96935.34;5056161;28;20211;-63
2023/07/17 02:12:47;;;;;;;3.40;3.08;;;;;;;18.14;100.00;96934.88;5055502;28;20296;-65
2023/07/17 02:15:15;;;;;;;5.78;3.40;;;;;;;18.13;100.00;96937.75;5056486;28;20591;-63
2023/07/17 02:17:41;;;;;;;5.22;3.10;;;;;;;18.11;100.00;96951.28;5055897;28;20268;-63
2023/07/17 02:20:10;;;;;;;5.28;3.20;;;;;;;18.06;100.00;96950.19;5056504;28;20207;-63
2023/07/17 02:22:36;;;;;;;4.60;3.38;;;;;;;18.06;100.00;96944.84;5056195;28;20203;-64
2023/07/17 02:25:05;;;;;;;6.18;3.40;;;;;;;17.97;100.00;96946.75;5056416;28;20207;-62
2023/07/17 02:27:32;;;;;;;3.88;2.90;;;;;;;17.95;100.00;96950.63;5055708;28;20265;-64
2023/07/17 02:29:58;;;;;;;3.50;3.20;;;;;;;17.92;100.00;96949.16;5056234;28;20541;-63
2023/07/17 02:32:26;;;;;;;3.55;3.10;;;;;;;17.87;100.00;96963.06;5055783;28;20230;-65
2023/07/17 02:34:53;;;;;;;4.00;3.03;;;;;;;17.87;100.00;96963.06;5063725;28;20236;-63
2023/07/17 02:37:19;;;;;;;3.95;3.55;;;;;;;17.88;100.00;96962.06;5045908;28;20212;-65
2023/07/17 02:39:46;;;;;;;6.35;3.35;;;;;;;17.88;100.00;96962.06;5060178;28;20219;-63
2023/07/17 02:42:12;;;;;;;5.15;3.35;;;;;;;17.86;100.00;96964.06;5053193;28;20204;-64
2023/07/17 02:44:39;;;;;;;3.58;3.08;;;;;;;17.86;100.00;96972.09;5037551;28;20212;-63
2023/07/17 02:47:05;;;;;;;4.00;3.13;;;;;;;17.80;100.00;96966.63;5046489;28;20214;-64
2023/07/17 02:49:33;;;;;;;4.70;3.45;;;;;;;17.83;100.00;96968.94;5042129;28;20242;-65
2023/07/17 02:52:02;;;;;;;4.10;3.25;;;;;;;17.85;100.00;96966.94;5046445;28;20222;-63
2023/07/17 02:54:28;;;;;;;5.38;3.42;;;;;;;17.87;100.00;96964.91;5041149;28;20651;-65
2023/07/17 02:56:55;;;;;;;4.22;3.47;;;;;;;17.87;100.00;96973.78;5037336;28;20215;-63
2023/07/17 02:59:21;;;;;;;3.50;3.20;;;;;;;17.88;100.00;96972.78;5036977;28;20208;-65
2023/07/17 03:01:49;;;;;;;5.68;3.50;;;;;;;17.89;100.00;96963.72;5037115;28;20219;-64
2023/07/17 03:04:15;;;;;;;4.57;3.42;;;;;;;17.87;100.00;96959.56;5037018;28;20216;-65
2023/07/17 03:06:43;;;;;;;5.53;3.28;;;;;;;17.84;100.00;96963.44;5045831;28;20639;-64
2023/07/17 03:09:10;;;;;;;4.95;3.13;;;;;;;17.84;100.00;96966.09;5053089;28;20264;-64
2023/07/17 03:11:36;;;;;;;3.42;3.17;;;;;;;17.75;100.00;96967.19;5038102;28;20211;-64
2023/07/17 03:14:03;;;;;;;3.97;3.28;;;;;;;17.74;100.00;96970.88;5049264;28;20235;-63
2023/07/17 03:16:29;;;;;;;3.30;3.00;;;;;;;17.71;100.00;96976.56;5036404;28;20243;-62
2023/07/17 03:18:57;;;;;;;5.20;3.33;;;;;;;17.72;100.00;96975.56;5036740;28;20663;-64
2023/07/17 03:21:23;;;;;;;4.63;3.42;;;;;;;17.75;100.00;96977.88;5043110;28;20636;-63
2023/07/17 03:23:51;;;;;;;4.18;3.33;;;;;;;17.79;100.00;96973.00;5035716;28;20207;-64
2023/07/17 03:26:18;;;;;;;5.82;3.08;;;;;;;17.81;100.00;96977.19;5044523;28;20277;-63
2023/07/17 03:28:44;;;;;;;3.78;3.38;;;;;;;17.78;100.00;96974.84;5038074;28;20211;-62
2023/07/17 03:31:10;;;;;;;4.20;3.13;;;;;;;17.80;100.00;96980.03;5035522;28;20262;-62
2023/07/17 03:33:37;;;;;;;3.47;3.17;;;;;;;17.81;100.00;96971.81;5035069;28;20227;-64
2023/07/17 03:36:03;;;;;;;5.72;3.67;;;;;;;17.83;100.00;96971.63;5036490;28;20218;-63
2023/07/17 03:38:30;;;;;;;5.18;3.20;;;;;;;17.88;100.00;96985.31;5046197;28;20295;-63
2023/07/17 03:40:58;;;;;;;3.60;3.15;;;;;;;17.85;100.00;96978.44;5035551;28;20222;-62
2023/07/17 03:43:24;;;;;;;4.72;2.95;;;;;;;17.73;100.00;96977.22;5034562;28;20203;-63
2023/07/17 03:45:52;;;;;;;3.67;3.35;;;;;;;17.77;100.00;96978.53;5035054;28;20310;-63
2023/07/17 03:48:18;;;;;;;3.95;3.60;;;;;;;17.84;100.00;96979.50;5034583;28;20603;-63
2023/07/17 03:50:44;;;;;;;5.78;4.40;;;;;;;17.83;100.00;96980.50;5034710;28;20219;-63
2023/07/17 03:53:11;;;;;;;3.33;3.13;;;;;;;17.85;100.00;96993.69;5034697;28;20558;-63
2023/07/17 03:55:39;;;;;;;4.40;3.38;;;;;;;17.81;100.00;96995.91;5036161;28;20215;-65
2023/07/17 03:58:07;;;;;;;3.70;3.22;;;;;;;17.78;100.00;96992.75;5034928;28;20246;-62
2023/07/17 04:00:34;;;;;;;3.72;2.83;;;;;;;17.79;100.00;96987.22;5035005;28;20214;-65
2023/07/17 04:03:01;;;;;;;4.25;3.00;;;;;;;17.81;100.00;96987.03;5034477;28;20231;-63
2023/07/17 04:05:28;;;;;;;3.78;3.10;;;;;;;17.80;100.00;96991.56;5047281;28;20639;-62
2023/07/17 04:07:57;;;;;;;4.38;3.30;;;;;;;17.79;100.00;96979.19;5035038;28;20258;-63
2023/07/17 04:10:23;;;;;;;2.88;2.67;;;;;;;17.79;100.00;96976.50;5034913;28;20306;-64
2023/07/17 04:12:50;;;;;;;3.65;3.08;;;;;;;17.84;100.00;96976.81;5041243;28;20322;-64
2023/07/17 04:15:18;;;;;;;4.00;3.30;;;;;;;17.79;100.00;96987.22;5040479;28;20613;-64
2023/07/17 04:17:44;;;;;;;4.70;3.58;;;;;;;17.83;100.00;96993.03;5035177;28;20211;-64
2023/07/17 04:20:11;;;;;;;4.70;3.30;;;;;;;17.81;100.00;96987.88;5041312;28;20210;-65
2023/07/17 04:22:38;;;;;;;4.45;3.13;;;;;;;17.83;100.00;96998.38;5033940;28;20218;-65
2023/07/17 04:25:06;;;;;;;3.72;3.40;;;;;;;17.79;100.00;96997.91;5034486;28;20207;-64
2023/07/17 04:27:33;;;;;;;5.18;3.25;;;;;;;17.82;100.00;96996.72;5046233;28;20207;-62
2023/07/17 04:29:59;;;;;;;5.68;3.38;;;;;;;17.74;100.00;96994.97;5034437;28;20212;-63
2023/07/17 04:32:27;;;;;;;4.32;2.97;;;;;;;17.79;100.00;97002.41;5034229;28;20212;-67
2023/07/17 04:34:54;;;;;;;4.97;3.30;;;;;;;17.80;100.00;97006.78;5034333;28;20218;-63
2023/07/17 04:37:20;;;;;;;3.58;3.03;;;;;;;17.78;100.00;97012.28;5038652;28;20211;-67
2023/07/17 04:39:47;;;;;;;3.65;3.00;;;;;;;17.75;100.00;97018.00;5039057;28;20200;-63
2023/07/17 04:42:14;;;;;;;3.42;3.13;;;;;;;17.78;100.00;97016.84;5042537;28;20203;-64
2023/07/17 04:44:43;;;;;;;5.30;3.30;;;;;;;17.83;100.00;97012.59;5047064;28;20226;-64
2023/07/17 04:47:10;;;;;;;3.40;3.10;;;;;;;17.90;100.00;97020.72;5057081;28;20265;-63
2023/07/17 04:49:38;;;;;;;3.60;3.15;;;;;;;17.95;100.00;97025.56;5040580;28;20239;-64
2023/07/17 04:52:05;;;;;;;4.10;3.67;;;;;;;18.01;100.00;97038.22;5036047;28;20203;-63
2023/07/17 04:54:32;;;;;;;4.82;3.40;;;;;;;18.08;100.00;97036.47;5035604;28;20227;-63
2023/07/17 04:56:58;;;;;;;4.40;3.40;;;;;;;18.09;100.00;97038.16;5046983;28;20218;-63
2023/07/17 04:59:25;;;;;;;4.57;3.13;;;;;;;18.10;100.00;97034.47;5037217;28;20230;-64
2023/07/17 05:01:52;;;;;;;3.70;3.40;;;;;;;18.13;100.00;97032.28;5035317;28;20214;-62
2023/07/17 05:04:19;;;;;;;4.28;3.35;;;;;;;18.19;100.00;97023.50;5035129;28;20640;-65
2023/07/17 05:06:47;;;;;;;4.30;3.28;;;;;;;18.31;100.00;97029.25;5035024;28;20231;-63
2023/07/17 05:09:13;;;;;;;5.75;3.33;;;;;;;18.38;100.00;97027.53;5039660;28;20217;-64
2023/07/17 05:11:41;;;;;;;3.42;3.13;;;;;;;18.51;100.00;97035.78;5044851;28;20314;-63
2023/07/17 05:14:08;;;;;;;4.22;3.83;;;;;;;18.49;100.00;97029.75;5043052;28;20552;-64
2023/07/17 05:16:34;;;;;;;3.38;3.17;;;;;;;18.58;100.00;97036.72;5034000;28;20699;-64
2023/07/17 05:19:00;;;;;;;6.32;3.50;;;;;;;18.60;100.00;97037.34;5047006;28;20265;-62
2023/07/17 05:21:27;;;;;;;5.13;3.13;;;;;;;18.61;100.00;97039.03;5039983;28;20220;-62
2023/07/17 05:23:55;;;;;;;6.97;3.70;;;;;;;18.64;100.00;97049.38;5034316;28;20207;-64
2023/07/17 05:26:21;;;;;;;5.28;3.83;;;;;;;18.65;100.00;97051.03;5043517;28;20261;-63
2023/07/17 05:28:48;;;;;;;7.15;3.83;;;;;;;18.74;100.00;97055.28;5034332;28;20705;-63
2023/07/17 05:31:15;;;;;;;3.83;3.42;;;;;;;18.78;100.00;97053.06;5035502;28;20294;-62
2023/07/17 05:33:41;;;;;;;4.82;3.72;;;;;;;18.83;100.00;97034.59;5036886;28;20357;-62
2023/07/17 05:36:08;;;;;;;3.72;3.42;;;;;;;18.84;100.00;97034.44;5037580;28;20204;-63
2023/07/17 05:38:34;;;;;;;4.97;3.78;;;;;;;18.91;100.00;97029.16;5045557;28;20629;-66
2023/07/17 05:41:03;;;;;;;4.28;3.88;;;;;;;19.09;100.00;97042.19;5049621;28;20544;-67
2023/07/17 05:43:30;;;;;;;4.63;3.78;;;;;;;19.23;100.00;97044.00;5037099;28;20246;-63
2023/07/17 05:45:57;;;;;;;5.20;3.53;;;;;;;19.32;100.00;97041.03;5037097;28;20219;-63
2023/07/17 05:48:23;;;;;;;4.43;3.90;;;;;;;19.41;100.00;97039.13;5037118;28;20220;-63
2023/07/17 05:50:50;;;;;;;4.05;3.55;;;;;;;19.51;100.00;97036.97;5037304;28;20216;-63
2023/07/17 05:53:17;;;;;;;6.57;3.78;;;;;;;19.56;100.00;97031.00;5036890;28;20247;-64
2023/07/17 05:55:44;;;;;;;4.03;3.45;;;;;;;19.73;100.00;97030.56;5037227;28;20246;-64
2023/07/17 05:58:11;;;;;;;3.63;3.33;;;;;;;19.99;100.00;97034.56;5036217;28;20679;-65
2023/07/17 06:00:38;;;;;;;4.20;3.60;;;;;;;20.22;100.00;97041.41;5037128;28;20212;-65
2023/07/17 06:03:05;;;;;;;4.80;3.63;;;;;;;20.49;100.00;97047.84;5036955;28;20207;-63
2023/07/17 06:05:32;;;;;;;4.13;3.72;;;;;;;20.73;100.00;97052.75;5036907;28;20215;-64
2023/07/17 06:07:58;;;;;;;7.35;3.85;;;;;;;20.81;100.00;97057.16;5042754;28;20586;-63
2023/07/17 06:10:24;;;;;;;3.97;3.55;;;;;;;20.84;100.00;97051.38;5056320;28;20211;-64
2023/07/17 06:12:51;;;;;;;4.82;3.30;;;;;;;20.85;100.00;97043.13;5056154;28;20207;-64
2023/07/17 06:15:19;;;;;;;4.50;3.58;;;;;;;20.90;100.00;97039.03;5056540;28;20243;-64
2023/07/17 06:17:45;;;;;;;4.30;3.60;;;;;;;20.79;100.00;97043.94;5057109;28;20782;-63
2023/07/17 06:20:12;;;;;;;4.78;3.47;;;;;;;20.76;100.00;97046.19;5059354;28;20203;-64
2023/07/17 06:22:38;;;;;;;4.10;2.90;;;;;;;20.81;100.00;97033.81;5058851;28;20247;-64
2023/07/17 06:25:06;;;;;;;3.90;3.28;;;;;;;20.87;100.00;97044.81;5056639;28;20207;-63
2023/07/17 06:27:33;;;;;;;5.05;3.10;;;;;;;21.10;100.00;97045.34;5055765;28;20753;-64
2023/07/17 06:29:59;;;;;;;4.93;3.28;;;;;;;21.29;100.00;97050.84;5056433;28;20298;-63
2023/07/17 06:32:27;;;;;;;5.07;3.40;;;;;;;21.49;100.00;97063.56;5048620;28;20217;-66
2023/07/17 06:34:53;;;;;;;3.53;3.00;;;;;;;21.55;100.00;97063.56;5050884;28;20243;-63
2023/07/17 06:37:20;;;;;;;3.88;3.28;;;;;;;21.46;100.00;97067.50;5065557;28;20277;-64
2023/07/17 06:39:46;;;;;;;3.88;3.50;;;;;;;21.41;100.00;97058.34;5067264;28;20233;-67
2023/07/17 06:42:13;;;;;;;5.68;3.42;;;;;;;21.39;100.00;97065.78;5057265;28;20285;-64
2023/07/17 06:44:39;;;;;;;3.72;3.28;;;;;;;21.20;100.00;97062.81;5051073;28;20233;-63
2023/07/17 06:47:06;;;;;;;3.90;2.88;;;;;;;21.16;100.00;97066.09;5047311;28;20208;-63
2023/07/17 06:49:34;;;;;;;4.00;2.83;;;;;;;21.11;100.00;97060.50;5040312;28;20200;-63
2023/07/17 06:52:00;;;;;;;3.55;3.25;;;;;;;21.14;100.00;97065.47;5055990;28;20216;-65
2023/07/17 06:54:29;;;;;;;3.88;2.97;;;;;;;21.16;100.00;97072.28;5056259;28;20227;-64
2023/07/17 06:56:57;;;;;;;3.55;3.20;;;;;;;21.12;100.00;97073.72;5055723;28;20207;-63
2023/07/17 06:59:28;;;;;;;3.90;3.17;;;;;;;21.10;100.00;97062.34;5056796;28;20217;-63
2023/07/17 07:01:55;;;;;;;4.28;3.05;;;;;;;21.11;100.00;97063.19;5039165;28;20253;-62
2023/07/17 07:04:21;;;;;;;3.88;3.05;;;;;;;21.15;100.00;97070.63;5038741;28;20218;-63
2023/07/17 07:06:49;;;;;;;4.63;3.30;;;;;;;21.18;100.00;97067.56;5037804;28;20663;-64
2023/07/17 07:09:15;;;;;;;3.80;3.22;;;;;;;21.23;100.00;97077.72;5051398;28;20212;-64
2023/07/17 07:11:42;;;;;;;4.00;2.95;;;;;;;21.25;100.00;97075.66;5039704;28;20231;-63
2023/07/17 07:14:08;;;;;;;5.80;3.10;;;;;;;21.21;100.00;97069.03;5048348;28;20232;-63
2023/07/17 07:16:35;;;;;;;4.68;3.10;;;;;;;21.23;100.00;97077.72;5037498;28;20235;-65
2023/07/17 07:19:01;;;;;;;3.50;3.20;;;;;;;21.25;100.00;97081.03;5041010;28;20215;-67
2023/07/17 07:21:28;;;;;;;4.47;3.30;;;;;;;21.24;100.00;97074.00;5046229;28;20582;-66
2023/07/17 07:23:58;;;;;;;4.95;3.58;;;;;;;21.24;100.00;97074.84;5036730;28;20207;-66
2023/07/17 07:26:25;;;;;;;6.57;3.55;;;;;;;21.16;100.00;97076.84;5044733;28;20207;-65
2023/07/17 07:28:51;;;;;;;4.97;3.40;;;;;;;21.20;100.00;97075.41;5046811;28;20211;-68
2023/07/17 07:31:17;;;;;;;4.85;3.60;;;;;;;21.18;100.00;97074.81;5035068;28;20203;-68
2023/07/17 07:33:44;;;;;;;4.25;3.40;;;;;;;21.20;100.00;97072.72;5048421;28;20223;-66
2023/07/17 07:36:10;;;;;;;3.90;3.42;;;;;;;21.26;100.00;97080.00;5035256;28;20238;-65
2023/07/17 07:38:37;;;;;;;4.53;3.40;;;;;;;21.27;100.00;97073.59;5044201;28;20207;-66
2023/07/17 07:41:05;;;;;;;4.95;3.22;;;;;;;21.32;100.00;97077.38;5034826;28;20216;-65
2023/07/17 07:43:31;;;;;;;3.63;3.22;;;;;;;21.62;100.00;97072.50;5034373;28;20215;-65
2023/07/17 07:45:57;;;;;;;3.38;2.90;;;;;;;21.99;99.49;97079.28;5035124;28;20219;-65
2023/07/17 07:48:24;;;;;;;4.60;3.50;;;;;;;22.39;99.47;97085.53;5035215;28;20220;-66
2023/07/17 07:50:50;;;;;;;5.78;3.95;;;;;;;22.83;96.16;97092.22;5035076;28;20262;-65
2023/07/17 07:53:17;;;;;;;6.15;3.10;;;;;;;23.15;95.33;97097.56;5034972;28;20223;-68
2023/07/17 07:55:43;;;;;;;4.10;3.47;;;;;;;23.15;94.84;97099.44;5046469;28;20561;-67
2023/07/17 07:58:11;;;;;;;5.10;3.50;;;;;;;22.96;92.17;97094.88;5034360;28;20235;-66
2023/07/17 08:00:37;;;;;;;6.45;3.30;;;;;;;22.79;93.80;97087.25;5035095;28;20350;-65
2023/07/17 08:03:05;;;;;;;5.15;3.10;;;;;;;22.72;89.30;97086.41;5034448;28;20208;-67
2023/07/17 08:05:31;;;;;;;5.32;3.40;;;;;;;22.70;92.54;97079.59;5035170;28;20208;-68
2023/07/17 08:07:58;;;;;;;4.80;3.28;;;;;;;22.83;90.95;97078.72;5050117;28;20203;-65
2023/07/17 08:10:25;;;;;;;5.05;3.00;;;;;;;23.03;91.34;97080.34;5035447;28;20639;-68
2023/07/17 08:12:51;;;;;;;4.10;3.60;;;;;;;23.10;91.63;97077.66;5042661;28;20215;-67
2023/07/17 08:15:19;;;;;;;5.43;3.97;;;;;;;23.29;91.80;97087.56;5041916;28;20250;-67
2023/07/17 08:17:45;;;;;;;5.72;3.78;;;;;;;23.39;89.49;97087.94;5035502;28;20211;-69
2023/07/17 08:20:12;;;;;;;5.68;3.88;;;;;;;23.29;87.79;97090.28;5042118;28;20198;-69
2023/07/17 08:22:39;;;;;;;4.07;3.63;;;;;;;23.08;83.69;97090.53;5034531;28;20207;-67
2023/07/17 08:25:07;;;;;;;4.50;3.63;;;;;;;23.02;86.94;97091.38;5036057;28;20258;-68
2023/07/17 08:27:34;;;;;;;5.00;3.63;;;;;;;22.87;84.52;97086.22;5048182;28;20215;-66
2023/07/17 08:30:00;;;;;;;6.10;3.80;;;;;;;22.78;86.83;97084.75;5035590;28;20222;-69
2023/07/17 08:32:28;;;;;;;4.32;3.45;;;;;;;22.78;87.30;97085.56;5041186;28;20203;-67
2023/07/17 08:34:54;;;;;;;4.28;3.88;;;;;;;22.77;86.10;97083.94;5040118;28;20242;-66
2023/07/17 08:37:21;;;;;;;4.97;3.65;;;;;;;22.77;84.88;97086.63;5047817;28;20207;-67
2023/07/17 08:39:47;;;;;;;4.75;3.78;;;;;;;22.88;86.04;97089.75;5038918;28;20207;-69
2023/07/17 08:42:14;;;;;;;4.50;3.83;;;;;;;23.01;84.44;97084.31;5034302;28;20208;-68
2023/07/17 08:44:40;;;;;;;6.53;3.83;;;;;;;23.07;84.98;97088.84;5033574;28;20211;-65
2023/07/17 08:47:08;;;;;;;4.00;3.60;;;;;;;23.21;84.11;97080.53;5035346;28;20208;-67
2023/07/17 08:49:36;;;;;;;5.63;3.60;;;;;;;23.40;85.95;97094.19;5041929;28;20196;-67
2023/07/17 08:52:04;;;;;;;4.15;3.70;;;;;;;23.40;84.06;97084.22;5040735;28;20556;-66
2023/07/17 08:54:30;;;;;;;8.80;4.40;;;;;;;23.47;81.68;97079.66;5040871;28;20295;-65
2023/07/17 08:57:02;;;;;;;5.28;4.22;;;;;;;23.64;83.26;97080.00;5041307;28;20222;-66
2023/07/17 08:59:30;;;;;;;8.20;3.83;;;;;;;23.77;80.22;97091.56;5040657;28;20278;-65
2023/07/17 09:01:56;;;;;;;6.13;3.70;;;;;;;23.85;77.48;97087.78;5041556;28;20555;-66
2023/07/17 09:04:23;;;;;;;4.18;3.67;;;;;;;24.08;79.69;97079.16;5042526;28;20196;-66
2023/07/17 09:06:52;;;;;;;4.65;3.55;;;;;;;24.11;78.30;97081.44;5045196;28;20210;-66
2023/07/17 09:09:19;;;;;;;5.80;3.90;;;;;;;24.36;79.96;97079.63;5045417;28;20203;-64
2023/07/17 09:11:45;;;;;;;4.35;3.83;;;;;;;24.54;77.24;97071.59;5044676;28;20290;-64
2023/07/17 09:14:12;;;;;;;5.13;3.78;;;;;;;24.76;75.87;97077.44;5046320;28;20207;-64
2023/07/17 09:16:40;;;;;;;4.72;4.00;;;;;;;25.03;75.62;97070.75;5045184;28;20253;-64
2023/07/17 09:19:06;;;;;;;6.88;3.95;;;;;;;25.16;74.27;97077.91;5046625;28;20632;-64
2023/07/17 09:21:32;;;;;;;4.47;4.07;;;;;;;25.20;75.56;97081.81;5047357;28;20217;-64
2023/07/17 09:24:00;;;;;;;7.38;3.90;;;;;;;25.46;74.42;97075.28;5044990;28;20214;-65
2023/07/17 09:26:28;;;;;;;6.78;3.90;;;;;;;25.55;71.18;97072.06;5045147;28;20281;-62
2023/07/17 09:28:56;;;;;;;5.28;3.58;;;;;;;25.77;70.81;97072.44;5045375;28;20211;-64
2023/07/17 09:31:27;;;;;;;7.65;4.15;;;;;;;25.74;70.57;97060.19;5045669;28;20206;-66
2023/07/17 09:33:53;;;;;;;4.47;3.70;;;;;;;25.90;69.58;97060.63;5044934;28;20206;-64
2023/07/17 09:36:21;;;;;;;4.95;3.80;;;;;;;26.00;66.34;97060.88;5044879;28;20618;-65
2023/07/17 09:38:51;;;;;;;4.78;4.03;;;;;;;26.04;65.07;97057.47;5045478;28;20210;-65
2023/07/17 09:41:19;;;;;;;4.50;4.00;;;;;;;26.31;66.41;97047.09;5044888;28;20248;-64
2023/07/17 09:43:52;;;;;;;5.45;3.97;;;;;;;26.44;64.74;97057.72;5044499;28;20191;-65
2023/07/17 09:46:20;;;;;;;4.25;3.85;;;;;;;26.68;64.99;97059.41;5044826;28;20289;-65
2023/07/17 09:48:46;;;;;;;6.43;4.07;;;;;;;26.79;66.20;97049.63;5044904;28;20211;-62
2023/07/17 09:51:13;;;;;;;6.82;3.80;;;;;;;26.92;64.91;97048.63;5044785;28;20270;-63
2023/07/17 09:53:40;;;;;;;4.10;3.70;;;;;;;27.04;63.48;97046.72;5044409;28;20226;-63
2023/07/17 09:56:08;;;;;;;7.25;3.97;;;;;;;27.12;65.09;97051.78;5044611;28;20558;-62
2023/07/17 09:58:36;;;;;;;4.40;3.67;;;;;;;26.81;61.89;97052.97;5042845;28;20222;-64
2023/07/17 10:01:03;;;;;;;5.43;3.75;;;;;;;26.81;63.47;97052.13;5044389;28;20215;-64
2023/07/17 10:03:30;;;;;;;4.22;3.83;;;;;;;26.59;64.67;97057.28;5044124;28;20299;-64
2023/07/17 10:05:58;;;;;;;4.88;3.70;;;;;;;26.53;63.64;97053.63;5044173;28;20202;-62
2023/07/17 10:08:25;;;;;;;6.03;3.85;;;;;;;26.56;65.65;97055.06;5044127;28;20195;-64
2023/07/17 10:10:54;;;;;;;4.68;3.92;;;;;;;26.45;64.16;97053.97;5044193;28;20238;-64
2023/07/17 10:13:22;;;;;;;5.28;3.60;;;;;;;26.45;65.38;97048.53;5042455;28;20288;-64
2023/07/17 10:15:50;;;;;;;3.80;3.50;;;;;;;26.22;64.21;97048.47;5045077;28;20243;-64
2023/07/17 10:18:16;;;;;;;6.85;4.00;;;;;;;26.10;65.68;97039.47;5042947;28;20580;-63
2023/07/17 10:20:52;;;;;;;5.32;3.95;;;;;;;26.03;64.92;97038.75;5043879;28;20641;-66
2023/07/17 10:23:24;;;;;;;4.05;3.63;;;;;;;26.30;67.16;97033.75;5044094;28;20195;-64
2023/07/17 10:25:51;;;;;;;4.30;3.90;;;;;;;26.48;68.46;97031.81;5044533;28;20223;-63
2023/07/17 10:28:32;;;;;;;5.00;4.25;;;;;;;26.47;64.36;97029.31;5043892;28;21021;-65
2023/07/17 10:31:09;;;;;;;4.25;3.85;;;;;;;26.66;63.76;97029.00;5044635;28;20200;-63
2023/07/17 10:33:39;;;;;;;5.95;4.15;;;;;;;26.79;68.41;97037.94;5045236;28;20211;-64
2023/07/17 10:36:06;;;;;;;5.93;4.00;;;;;;;26.97;66.96;97035.16;5044759;28;20227;-65
2023/07/17 10:38:35;;;;;;;4.72;4.32;;;;;;;27.08;64.50;97042.47;5045062;28;20211;-64
2023/07/17 10:41:02;;;;;;;5.93;4.40;;;;;;;27.19;63.08;97034.31;5044419;28;20793;-65
2023/07/17 10:43:29;;;;;;;6.47;4.03;;;;;;;27.35;62.25;97021.88;5044932;28;20223;-63
2023/07/17 10:45:55;;;;;;;5.95;4.32;;;;;;;27.19;59.98;97018.03;5048752;28;21374;-63
2023/07/17 10:48:27;;;;;;;4.32;3.95;;;;;;;27.33;61.39;97025.91;5048709;28;20200;-63
2023/07/17 10:50:57;;;;;;;5.50;4.03;;;;;;;27.38;65.35;97029.56;5048202;28;20209;-62
2023/07/17 10:53:23;;;;;;;4.30;3.90;;;;;;;27.47;64.98;97030.03;5043681;28;20211;-61
2023/07/17 10:55:51;;;;;;;4.45;3.92;;;;;;;27.55;62.88;97021.50;5043081;28;20285;-63
2023/07/17 10:58:19;;;;;;;5.97;4.20;;;;;;;27.54;60.58;97019.84;5042882;28;20218;-64
2023/07/17 11:00:45;;;;;;;5.55;3.92;;;;;;;27.37;62.08;97014.31;5043282;28;20215;-62
2023/07/17 11:03:14;;;;;;;6.43;4.47;;;;;;;27.47;64.35;97022.72;5043638;28;20240;-62
2023/07/17 11:05:43;;;;;;;4.97;3.50;;;;;;;27.60;63.92;97014.28;5043724;28;20235;-63
2023/07/17 11:08:11;;;;;;;5.63;4.15;;;;;;;27.48;61.41;97020.81;5042278;28;20640;-62
2023/07/17 11:10:41;;;;;;;7.43;4.72;;;;;;;27.67;62.91;97014.13;5043127;28;20208;-63
2023/07/17 11:13:08;;;;;;;5.53;4.68;;;;;;;27.86;63.49;97014.78;5061539;28;20204;-64
2023/07/17 11:15:36;;;;;;;6.22;4.93;;;;;;;27.73;63.29;97010.47;5057965;28;20520;-63
2023/07/17 11:18:04;;;;;;;5.78;4.35;;;;;;;27.77;61.31;97008.09;5051765;28;20203;-64
2023/07/17 11:20:32;;;;;;;7.68;6.00;;;;;;;27.80;60.63;97008.44;5045633;28;20204;-64
2023/07/17 11:23:00;;;;;;;9.38;4.88;;;;;;;27.75;60.13;97005.59;5043944;28;20212;-64
2023/07/17 11:25:28;;;;;;;7.57;4.82;;;;;;;27.85;60.17;97005.78;5045101;28;20271;-64
2023/07/17 11:27:55;;;;;;;5.13;4.28;;;;;;;27.75;57.80;97007.50;5044607;28;20302;-63